AAL358 KCLT-KSNA
Flight info
| Callsign | AAL358 |
|---|---|
| Flight time | N/A |
| Altitude | 30000 |
| Route | BOBZY5 BNA HODJS MMB MIRME FTI KA33U ZUN HIMDU DSNEE6 |
| Aircraft | B38M/M-SDE1FGHILORVWXY/HB1 |
Departure
| Time | N/A |
|---|---|
| Airport | Charlotte Douglas International Airport (KCLT) |
Arrival
| Time | 2026-05-05 05:12 |
|---|---|
| Airport | John Wayne Orange County International Airport (KSNA) |
| Time | Latitude | Longitude | Altitude | Speed | Heading |
|---|---|---|---|---|---|
| 2026-05-05 04:26 | 34.48928 | -113.36173 | 33866 ft | 362 kts | 253° |
| 2026-05-05 04:27 | 34.48135 | -113.42190 | 33855 ft | 362 kts | 253° |
| 2026-05-05 04:27 | 34.47335 | -113.48235 | 33856 ft | 365 kts | 252° |
| 2026-05-05 04:28 | 34.46529 | -113.54315 | 33859 ft | 366 kts | 252° |
| 2026-05-05 04:28 | 34.45722 | -113.60375 | 33860 ft | 365 kts | 252° |
| 2026-05-05 04:29 | 34.44911 | -113.66449 | 33850 ft | 365 kts | 252° |
| 2026-05-05 04:29 | 34.44096 | -113.72525 | 33858 ft | 365 kts | 252° |
| 2026-05-05 04:30 | 34.43278 | -113.78608 | 33868 ft | 368 kts | 253° |
| 2026-05-05 04:30 | 34.42450 | -113.84734 | 33866 ft | 369 kts | 253° |
| 2026-05-05 04:31 | 34.41619 | -113.90861 | 33856 ft | 369 kts | 253° |
| 2026-05-05 04:31 | 34.40785 | -113.96992 | 33858 ft | 369 kts | 253° |
| 2026-05-05 04:32 | 34.39772 | -114.03049 | 33855 ft | 364 kts | 248° |
| 2026-05-05 04:32 | 34.38450 | -114.08980 | 33852 ft | 367 kts | 250° |
| 2026-05-05 04:33 | 34.37152 | -114.14989 | 33845 ft | 370 kts | 250° |
| 2026-05-05 04:33 | 34.35860 | -114.21005 | 33846 ft | 370 kts | 250° |
| 2026-05-05 04:34 | 34.34568 | -114.27010 | 33850 ft | 369 kts | 250° |
| 2026-05-05 04:34 | 34.33265 | -114.33030 | 33855 ft | 370 kts | 250° |
| 2026-05-05 04:35 | 34.31950 | -114.39059 | 33856 ft | 370 kts | 250° |
| 2026-05-05 04:35 | 34.30627 | -114.45114 | 33856 ft | 375 kts | 251° |
| 2026-05-05 04:36 | 34.29294 | -114.51194 | 33837 ft | 374 kts | 250° |
| 2026-05-05 04:36 | 34.27958 | -114.57278 | 33840 ft | 375 kts | 250° |
| 2026-05-05 04:37 | 34.26619 | -114.63360 | 33837 ft | 374 kts | 250° |
| 2026-05-05 04:37 | 34.25270 | -114.69438 | 33835 ft | 374 kts | 250° |
| 2026-05-05 04:38 | 34.23889 | -114.75487 | 33843 ft | 374 kts | 250° |
| 2026-05-05 04:38 | 34.22505 | -114.81550 | 33823 ft | 374 kts | 250° |
| 2026-05-05 04:39 | 34.21118 | -114.87612 | 33842 ft | 374 kts | 250° |
| 2026-05-05 04:39 | 34.19739 | -114.93627 | 33835 ft | 374 kts | 250° |
| 2026-05-05 04:40 | 34.18379 | -114.99737 | 33833 ft | 374 kts | 250° |
| 2026-05-05 04:40 | 34.17029 | -115.05803 | 33844 ft | 373 kts | 250° |
| 2026-05-05 04:41 | 34.15682 | -115.11835 | 33837 ft | 372 kts | 249° |
| 2026-05-05 04:41 | 34.14345 | -115.17814 | 33828 ft | 372 kts | 250° |
| 2026-05-05 04:42 | 34.12982 | -115.23888 | 33839 ft | 372 kts | 249° |
| 2026-05-05 04:42 | 34.11636 | -115.29869 | 33836 ft | 372 kts | 249° |
| 2026-05-05 04:43 | 34.10279 | -115.35886 | 33848 ft | 372 kts | 249° |
| 2026-05-05 04:43 | 34.08919 | -115.41902 | 33847 ft | 372 kts | 249° |
| 2026-05-05 04:44 | 34.07553 | -115.47929 | 33848 ft | 373 kts | 249° |
| 2026-05-05 04:44 | 34.06185 | -115.53957 | 33837 ft | 372 kts | 249° |
| 2026-05-05 04:44 | 34.05506 | -115.56969 | 33715 ft | 372 kts | 251° |
| 2026-05-05 04:45 | 34.05080 | -115.60067 | 33551 ft | 374 kts | 254° |
| 2026-05-05 04:45 | 34.04671 | -115.63162 | 33412 ft | 373 kts | 253° |
| 2026-05-05 04:45 | 34.04249 | -115.66245 | 33280 ft | 372 kts | 253° |
| 2026-05-05 04:45 | 34.03820 | -115.69307 | 33174 ft | 370 kts | 253° |
| 2026-05-05 04:46 | 34.03387 | -115.72364 | 33000 ft | 369 kts | 252° |
| 2026-05-05 04:46 | 34.02956 | -115.75403 | 32870 ft | 368 kts | 253° |
| 2026-05-05 04:46 | 34.02524 | -115.78434 | 32645 ft | 366 kts | 252° |
| 2026-05-05 04:46 | 34.02093 | -115.81456 | 32404 ft | 364 kts | 252° |
| 2026-05-05 04:47 | 34.01663 | -115.84462 | 32138 ft | 363 kts | 252° |
| 2026-05-05 04:47 | 34.01234 | -115.87450 | 31729 ft | 362 kts | 252° |
| 2026-05-05 04:47 | 34.00805 | -115.90439 | 31272 ft | 361 kts | 252° |
| 2026-05-05 04:47 | 34.00378 | -115.93409 | 30824 ft | 358 kts | 252° |
| 2026-05-05 04:48 | 33.99954 | -115.96351 | 30409 ft | 356 kts | 252° |
| 2026-05-05 04:48 | 33.99675 | -115.98290 | 30118 ft | 354 kts | 252° |
| 2026-05-05 04:48 | 33.99254 | -116.01200 | 29618 ft | 351 kts | 252° |
| 2026-05-05 04:48 | 33.98837 | -116.04088 | 29087 ft | 349 kts | 252° |
| 2026-05-05 04:49 | 33.98421 | -116.06957 | 28564 ft | 348 kts | 252° |
| 2026-05-05 04:49 | 33.98004 | -116.09828 | 28043 ft | 347 kts | 253° |
| 2026-05-05 04:49 | 33.97588 | -116.12687 | 27526 ft | 347 kts | 253° |
| 2026-05-05 04:49 | 33.97171 | -116.15550 | 27027 ft | 346 kts | 253° |
| 2026-05-05 04:50 | 33.96756 | -116.18402 | 26510 ft | 346 kts | 253° |
| 2026-05-05 04:50 | 33.96373 | -116.21268 | 26017 ft | 347 kts | 255° |
| 2026-05-05 04:50 | 33.96019 | -116.24130 | 25545 ft | 347 kts | 255° |
| 2026-05-05 04:50 | 33.95661 | -116.27000 | 25121 ft | 347 kts | 256° |
| 2026-05-05 04:51 | 33.95298 | -116.29878 | 24656 ft | 348 kts | 256° |
| 2026-05-05 04:51 | 33.94935 | -116.32769 | 24182 ft | 350 kts | 257° |
| 2026-05-05 04:51 | 33.94580 | -116.35667 | 23716 ft | 350 kts | 257° |
| 2026-05-05 04:51 | 33.94222 | -116.38573 | 23200 ft | 351 kts | 257° |
| 2026-05-05 04:52 | 33.93863 | -116.41476 | 22635 ft | 350 kts | 257° |
| 2026-05-05 04:52 | 33.93504 | -116.44373 | 22091 ft | 349 kts | 257° |
| 2026-05-05 04:52 | 33.93146 | -116.47258 | 21624 ft | 348 kts | 257° |
| 2026-05-05 04:52 | 33.92788 | -116.50134 | 21151 ft | 347 kts | 257° |
| 2026-05-05 04:53 | 33.92431 | -116.53006 | 20700 ft | 346 kts | 257° |
| 2026-05-05 04:53 | 33.92066 | -116.55868 | 20275 ft | 345 kts | 257° |
| 2026-05-05 04:53 | 33.91698 | -116.58728 | 19828 ft | 346 kts | 257° |
| 2026-05-05 04:53 | 33.91329 | -116.61602 | 19385 ft | 348 kts | 257° |
| 2026-05-05 04:54 | 33.90958 | -116.64479 | 18974 ft | 347 kts | 257° |
| 2026-05-05 04:54 | 33.90589 | -116.67347 | 18550 ft | 345 kts | 257° |
| 2026-05-05 04:54 | 33.90220 | -116.70198 | 18108 ft | 344 kts | 257° |
| 2026-05-05 04:54 | 33.89852 | -116.73041 | 17631 ft | 344 kts | 257° |
| 2026-05-05 04:55 | 33.89501 | -116.75882 | 17181 ft | 343 kts | 258° |
| 2026-05-05 04:55 | 33.89197 | -116.78715 | 16735 ft | 341 kts | 258° |
| 2026-05-05 04:55 | 33.88889 | -116.81539 | 16279 ft | 339 kts | 259° |
| 2026-05-05 04:55 | 33.88581 | -116.84340 | 15833 ft | 337 kts | 259° |
| 2026-05-05 04:56 | 33.88275 | -116.87120 | 15421 ft | 336 kts | 259° |
| 2026-05-05 04:56 | 33.87968 | -116.89898 | 14994 ft | 334 kts | 260° |
| 2026-05-05 04:56 | 33.87660 | -116.92665 | 14577 ft | 333 kts | 260° |
| 2026-05-05 04:56 | 33.87353 | -116.95428 | 14131 ft | 333 kts | 260° |
| 2026-05-05 04:57 | 33.87047 | -116.98185 | 13641 ft | 330 kts | 261° |
| 2026-05-05 04:57 | 33.86747 | -117.00905 | 13133 ft | 326 kts | 261° |
| 2026-05-05 04:57 | 33.86449 | -117.03591 | 12634 ft | 322 kts | 261° |
| 2026-05-05 04:57 | 33.86156 | -117.06233 | 12117 ft | 314 kts | 261° |
| 2026-05-05 04:58 | 33.85871 | -117.08796 | 11628 ft | 305 kts | 261° |
| 2026-05-05 04:58 | 33.85594 | -117.11287 | 11155 ft | 296 kts | 262° |
| 2026-05-05 04:58 | 33.85325 | -117.13695 | 10723 ft | 286 kts | 262° |
| 2026-05-05 04:58 | 33.85064 | -117.16032 | 10257 ft | 278 kts | 262° |
| 2026-05-05 04:59 | 33.84810 | -117.18308 | 9809 ft | 271 kts | 261° |
| 2026-05-05 04:59 | 33.84562 | -117.20522 | 9376 ft | 264 kts | 261° |
| 2026-05-05 04:59 | 33.84318 | -117.22688 | 8920 ft | 259 kts | 261° |
| 2026-05-05 04:59 | 33.84079 | -117.24819 | 8519 ft | 255 kts | 261° |
| 2026-05-05 05:00 | 33.83843 | -117.26907 | 8216 ft | 248 kts | 261° |
| 2026-05-05 05:00 | 33.83612 | -117.28939 | 8072 ft | 241 kts | 261° |
| 2026-05-05 05:00 | 33.83390 | -117.30907 | 7988 ft | 234 kts | 261° |
| 2026-05-05 05:00 | 33.83171 | -117.32839 | 7987 ft | 233 kts | 261° |
| 2026-05-05 05:01 | 33.82953 | -117.34771 | 7975 ft | 233 kts | 261° |
| 2026-05-05 05:01 | 33.82734 | -117.36701 | 7971 ft | 233 kts | 261° |
| 2026-05-05 05:01 | 33.82514 | -117.38633 | 7970 ft | 233 kts | 261° |
| 2026-05-05 05:01 | 33.82295 | -117.40558 | 7993 ft | 230 kts | 261° |
| 2026-05-05 05:02 | 33.82085 | -117.42400 | 7999 ft | 214 kts | 261° |
| 2026-05-05 05:02 | 33.81888 | -117.44117 | 7973 ft | 202 kts | 259° |
| 2026-05-05 05:02 | 33.81502 | -117.45719 | 7988 ft | 199 kts | 249° |
| 2026-05-05 05:02 | 33.81012 | -117.47276 | 8002 ft | 199 kts | 249° |
| 2026-05-05 05:03 | 33.80518 | -117.48834 | 8007 ft | 199 kts | 248° |
| 2026-05-05 05:03 | 33.80025 | -117.50391 | 7995 ft | 200 kts | 248° |
| 2026-05-05 05:03 | 33.79532 | -117.51949 | 7987 ft | 199 kts | 249° |
| 2026-05-05 05:03 | 33.79406 | -117.53591 | 7858 ft | 202 kts | 282° |
| 2026-05-05 05:04 | 33.79919 | -117.55166 | 7557 ft | 203 kts | 291° |
| 2026-05-05 05:04 | 33.80502 | -117.56716 | 7101 ft | 203 kts | 291° |
| 2026-05-05 05:04 | 33.81083 | -117.58263 | 6675 ft | 203 kts | 291° |
| 2026-05-05 05:04 | 33.81659 | -117.59810 | 6305 ft | 202 kts | 291° |
| 2026-05-05 05:05 | 33.82227 | -117.61341 | 5963 ft | 199 kts | 291° |
| 2026-05-05 05:05 | 33.82784 | -117.62835 | 5600 ft | 193 kts | 291° |
| 2026-05-05 05:05 | 33.83329 | -117.64288 | 5239 ft | 189 kts | 292° |
| 2026-05-05 05:05 | 33.83855 | -117.65725 | 4884 ft | 187 kts | 291° |
| 2026-05-05 05:06 | 33.84372 | -117.67149 | 4513 ft | 185 kts | 291° |
| 2026-05-05 05:06 | 33.84881 | -117.68563 | 4143 ft | 183 kts | 291° |
| 2026-05-05 05:06 | 33.85373 | -117.69960 | 3840 ft | 180 kts | 291° |
| 2026-05-05 05:06 | 33.85858 | -117.71340 | 3520 ft | 177 kts | 291° |
| 2026-05-05 05:07 | 33.86091 | -117.72728 | 3218 ft | 171 kts | 263° |
| 2026-05-05 05:07 | 33.85871 | -117.74123 | 3127 ft | 171 kts | 250° |
| 2026-05-05 05:07 | 33.85166 | -117.75237 | 2990 ft | 169 kts | 217° |
| 2026-05-05 05:07 | 33.84190 | -117.76028 | 3043 ft | 170 kts | 214° |
| 2026-05-05 05:08 | 33.83182 | -117.76783 | 3023 ft | 171 kts | 212° |
| 2026-05-05 05:08 | 33.82155 | -117.77504 | 3007 ft | 171 kts | 211° |
| 2026-05-05 05:08 | 33.81113 | -117.78208 | 2867 ft | 172 kts | 210° |
| 2026-05-05 05:08 | 33.80071 | -117.78897 | 2664 ft | 171 kts | 210° |
| 2026-05-05 05:09 | 33.79030 | -117.79576 | 2462 ft | 170 kts | 209° |
| 2026-05-05 05:09 | 33.78000 | -117.80240 | 2247 ft | 166 kts | 209° |
| 2026-05-05 05:09 | 33.77029 | -117.80862 | 2044 ft | 150 kts | 209° |
| 2026-05-05 05:09 | 33.76129 | -117.81438 | 1861 ft | 145 kts | 209° |
| 2026-05-05 05:10 | 33.75241 | -117.82003 | 1665 ft | 144 kts | 209° |
| 2026-05-05 05:10 | 33.74358 | -117.82566 | 1477 ft | 144 kts | 209° |
| 2026-05-05 05:10 | 33.73484 | -117.83131 | 1284 ft | 142 kts | 210° |
| 2026-05-05 05:10 | 33.72610 | -117.83704 | 1060 ft | 144 kts | 209° |
| 2026-05-05 05:11 | 33.71727 | -117.84258 | 853 ft | 143 kts | 210° |
| 2026-05-05 05:11 | 33.70837 | -117.84821 | 663 ft | 146 kts | 210° |
| 2026-05-05 05:11 | 33.69940 | -117.85381 | 488 ft | 144 kts | 211° |
| 2026-05-05 05:11 | 33.69061 | -117.85948 | 288 ft | 143 kts | 210° |
| 2026-05-05 05:12 | 33.68188 | -117.86492 | 100 ft | 141 kts | 210° |
| 2026-05-05 05:12 | 33.67408 | -117.86989 | 53 ft | 87 kts | 208° |
| 2026-05-05 05:12 | 33.67191 | -117.87126 | 57 ft | 4 kts | 207° |
| 2026-05-05 05:12 | 33.67108 | -117.87177 | 57 ft | 20 kts | 207° |
| 2026-05-05 05:13 | 33.66993 | -117.87221 | 58 ft | 17 kts | 173° |
| 2026-05-05 05:13 | 33.66913 | -117.87153 | 60 ft | 14 kts | 116° |
| 2026-05-05 05:13 | 33.66947 | -117.87059 | 57 ft | 15 kts | 41° |
| 2026-05-05 05:13 | 33.67032 | -117.86972 | 59 ft | 17 kts | 40° |
| 2026-05-05 05:14 | 33.67133 | -117.86873 | 57 ft | 20 kts | 37° |
| 2026-05-05 05:14 | 33.67255 | -117.86785 | 52 ft | 20 kts | 30° |
| 2026-05-05 05:14 | 33.67358 | -117.86686 | 56 ft | 20 kts | 33° |
| 2026-05-05 05:14 | 33.67487 | -117.86601 | 54 ft | 22 kts | 27° |
| 2026-05-05 05:15 | 33.67583 | -117.86541 | 52 ft | 12 kts | 29° |
| 2026-05-05 05:15 | 33.67590 | -117.86512 | 55 ft | 4 kts | 99° |
| 2026-05-05 05:15 | 33.67577 | -117.86477 | 54 ft | 3 kts | 118° |
| 2026-05-05 05:15 | 33.67571 | -117.86463 | 56 ft | 0 kts | 118° |